JAL2088 ROAH-RJOO
Flight info
| Callsign | JAL2088 |
|---|---|
| Flight time | 1h 30m |
| Altitude | 39000 |
| Route | AMAMI Y53 MADOG Y753 IZUMI |
| Aircraft | A359/H-SDE2E3GHIJ1J3J4J5LM1ORWXYZ/LB1D1 |
Departure
| Time | 2026-04-30 09:12 |
|---|---|
| Airport | Naha International Airport (ROAH) |
Arrival
| Time | 2026-04-30 10:42 |
|---|---|
| Airport | Osaka Itami International Airport (RJOO) |
| Time | Latitude | Longitude | Altitude | Speed | Heading |
|---|---|---|---|---|---|
| 2026-04-30 08:43 | 26.20433 | 127.64934 | 28 ft | 0 kts | 27° |
| 2026-04-30 09:01 | 26.20430 | 127.64932 | 28 ft | 2 kts | 27° |
| 2026-04-30 09:01 | 26.20413 | 127.64922 | 28 ft | 3 kts | 23° |
| 2026-04-30 09:01 | 26.20396 | 127.64915 | 27 ft | 3 kts | 14° |
| 2026-04-30 09:02 | 26.20367 | 127.64914 | 27 ft | 3 kts | 315° |
| 2026-04-30 09:02 | 26.20359 | 127.64925 | 27 ft | 3 kts | 282° |
| 2026-04-30 09:02 | 26.20357 | 127.64944 | 27 ft | 2 kts | 268° |
| 2026-04-30 09:03 | 26.20357 | 127.64958 | 28 ft | 3 kts | 268° |
| 2026-04-30 09:03 | 26.20358 | 127.64979 | 28 ft | 2 kts | 268° |
| 2026-04-30 09:03 | 26.20358 | 127.64984 | 28 ft | 0 kts | 268° |
| 2026-04-30 09:06 | 26.20358 | 127.64979 | 28 ft | 3 kts | 268° |
| 2026-04-30 09:06 | 26.20356 | 127.64932 | 27 ft | 8 kts | 268° |
| 2026-04-30 09:07 | 26.20353 | 127.64855 | 26 ft | 12 kts | 268° |
| 2026-04-30 09:07 | 26.20336 | 127.64778 | 24 ft | 11 kts | 225° |
| 2026-04-30 09:07 | 26.20258 | 127.64762 | 23 ft | 11 kts | 178° |
| 2026-04-30 09:07 | 26.20168 | 127.64767 | 27 ft | 15 kts | 178° |
| 2026-04-30 09:08 | 26.20056 | 127.64772 | 26 ft | 18 kts | 177° |
| 2026-04-30 09:08 | 26.19926 | 127.64779 | 26 ft | 20 kts | 177° |
| 2026-04-30 09:08 | 26.19775 | 127.64785 | 27 ft | 23 kts | 178° |
| 2026-04-30 09:08 | 26.19622 | 127.64792 | 25 ft | 19 kts | 178° |
| 2026-04-30 09:09 | 26.19478 | 127.64799 | 26 ft | 22 kts | 177° |
| 2026-04-30 09:09 | 26.19315 | 127.64806 | 26 ft | 24 kts | 178° |
| 2026-04-30 09:09 | 26.19140 | 127.64815 | 27 ft | 27 kts | 177° |
| 2026-04-30 09:09 | 26.18947 | 127.64824 | 24 ft | 25 kts | 178° |
| 2026-04-30 09:10 | 26.18854 | 127.64828 | 27 ft | 10 kts | 178° |
| 2026-04-30 09:10 | 26.18804 | 127.64793 | 26 ft | 10 kts | 250° |
| 2026-04-30 09:10 | 26.18798 | 127.64705 | 24 ft | 12 kts | 268° |
| 2026-04-30 09:10 | 26.18804 | 127.64645 | 26 ft | 7 kts | 302° |
| 2026-04-30 09:11 | 26.18850 | 127.64624 | 26 ft | 8 kts | 352° |
| 2026-04-30 09:11 | 26.18924 | 127.64619 | 29 ft | 17 kts | 357° |
| 2026-04-30 09:11 | 26.19228 | 127.64604 | 28 ft | 80 kts | 358° |
| 2026-04-30 09:11 | 26.20029 | 127.64567 | 28 ft | 148 kts | 358° |
| 2026-04-30 09:12 | 26.21092 | 127.64545 | 775 ft | 148 kts | 357° |
| 2026-04-30 09:12 | 26.22082 | 127.64527 | 1647 ft | 136 kts | 357° |
| 2026-04-30 09:12 | 26.23058 | 127.64479 | 1972 ft | 148 kts | 354° |
| 2026-04-30 09:12 | 26.24120 | 127.64410 | 2406 ft | 152 kts | 353° |
| 2026-04-30 09:13 | 26.25149 | 127.64207 | 2793 ft | 156 kts | 337° |
| 2026-04-30 09:13 | 26.26334 | 127.64111 | 2982 ft | 182 kts | 358° |
| 2026-04-30 09:13 | 26.27672 | 127.64239 | 3182 ft | 204 kts | 359° |
| 2026-04-30 09:13 | 26.29157 | 127.64382 | 3368 ft | 229 kts | 359° |
| 2026-04-30 09:14 | 26.30812 | 127.64521 | 3655 ft | 250 kts | 359° |
| 2026-04-30 09:14 | 26.32619 | 127.64661 | 3975 ft | 269 kts | 360° |
| 2026-04-30 09:14 | 26.34519 | 127.64811 | 4495 ft | 278 kts | 360° |
| 2026-04-30 09:14 | 26.36469 | 127.64962 | 5103 ft | 283 kts | 360° |
| 2026-04-30 09:15 | 26.38450 | 127.65113 | 5732 ft | 287 kts | 360° |
| 2026-04-30 09:15 | 26.40452 | 127.65265 | 6392 ft | 289 kts | 0° |
| 2026-04-30 09:15 | 26.42480 | 127.65421 | 7001 ft | 293 kts | 360° |
| 2026-04-30 09:15 | 26.44525 | 127.65575 | 7595 ft | 297 kts | 359° |
| 2026-04-30 09:16 | 26.46599 | 127.65728 | 8171 ft | 301 kts | 359° |
| 2026-04-30 09:16 | 26.48702 | 127.65881 | 8752 ft | 304 kts | 359° |
| 2026-04-30 09:16 | 26.50825 | 127.66036 | 9323 ft | 307 kts | 359° |
| 2026-04-30 09:16 | 26.52983 | 127.66191 | 9869 ft | 311 kts | 359° |
| 2026-04-30 09:17 | 26.55165 | 127.66354 | 10323 ft | 320 kts | 358° |
| 2026-04-30 09:17 | 26.57431 | 127.66519 | 10574 ft | 333 kts | 358° |
| 2026-04-30 09:17 | 26.59793 | 127.66688 | 10817 ft | 347 kts | 358° |
| 2026-04-30 09:17 | 26.62246 | 127.66872 | 11041 ft | 360 kts | 359° |
| 2026-04-30 09:18 | 26.64788 | 127.67063 | 11346 ft | 369 kts | 359° |
| 2026-04-30 09:18 | 26.67357 | 127.67256 | 11769 ft | 373 kts | 358° |
| 2026-04-30 09:18 | 26.69963 | 127.67452 | 12266 ft | 375 kts | 358° |
| 2026-04-30 09:18 | 26.72548 | 127.67645 | 12719 ft | 378 kts | 358° |
| 2026-04-30 09:19 | 26.75180 | 127.67843 | 13226 ft | 380 kts | 358° |
| 2026-04-30 09:19 | 26.77826 | 127.68041 | 13677 ft | 382 kts | 358° |
| 2026-04-30 09:19 | 26.80488 | 127.68239 | 14112 ft | 385 kts | 358° |
| 2026-04-30 09:19 | 26.83165 | 127.68440 | 14555 ft | 387 kts | 358° |
| 2026-04-30 09:20 | 26.85862 | 127.68637 | 14980 ft | 389 kts | 358° |
| 2026-04-30 09:20 | 26.88580 | 127.68839 | 15392 ft | 392 kts | 358° |
| 2026-04-30 09:20 | 26.91314 | 127.69045 | 15795 ft | 395 kts | 358° |
| 2026-04-30 09:20 | 26.94068 | 127.69251 | 16216 ft | 397 kts | 358° |
| 2026-04-30 09:21 | 26.95900 | 127.69387 | 16489 ft | 398 kts | 358° |
| 2026-04-30 09:21 | 26.99610 | 127.69665 | 17001 ft | 402 kts | 358° |
| 2026-04-30 09:21 | 27.01461 | 127.69804 | 17270 ft | 403 kts | 358° |
| 2026-04-30 09:21 | 27.04271 | 127.70013 | 17646 ft | 405 kts | 358° |
| 2026-04-30 09:22 | 27.07098 | 127.70223 | 18004 ft | 408 kts | 358° |
| 2026-04-30 09:22 | 27.09942 | 127.70437 | 18381 ft | 411 kts | 358° |
| 2026-04-30 09:22 | 27.12802 | 127.70653 | 18742 ft | 413 kts | 358° |
| 2026-04-30 09:22 | 27.15675 | 127.70875 | 19082 ft | 416 kts | 359° |
| 2026-04-30 09:23 | 27.18573 | 127.71312 | 19412 ft | 424 kts | 7° |
| 2026-04-30 09:23 | 27.21408 | 127.72336 | 19715 ft | 435 kts | 21° |
| 2026-04-30 09:23 | 27.23942 | 127.74229 | 19983 ft | 445 kts | 40° |
| 2026-04-30 09:23 | 27.25920 | 127.76932 | 20306 ft | 451 kts | 56° |
| 2026-04-30 09:24 | 27.27566 | 127.79943 | 20633 ft | 453 kts | 58° |
| 2026-04-30 09:24 | 27.29290 | 127.82916 | 20961 ft | 454 kts | 53° |
| 2026-04-30 09:24 | 27.31237 | 127.85716 | 21266 ft | 455 kts | 47° |
| 2026-04-30 09:24 | 27.33393 | 127.88324 | 21568 ft | 457 kts | 43° |
| 2026-04-30 09:25 | 27.35703 | 127.90790 | 21881 ft | 457 kts | 40° |
| 2026-04-30 09:25 | 27.38101 | 127.93169 | 22175 ft | 460 kts | 38° |
| 2026-04-30 09:25 | 27.40536 | 127.95508 | 22480 ft | 461 kts | 38° |
| 2026-04-30 09:25 | 27.42992 | 127.97849 | 22749 ft | 463 kts | 38° |
| 2026-04-30 09:26 | 27.45456 | 128.00211 | 22982 ft | 467 kts | 38° |
| 2026-04-30 09:26 | 27.47892 | 128.02565 | 23250 ft | 468 kts | 39° |
| 2026-04-30 09:26 | 27.50359 | 128.04968 | 23558 ft | 470 kts | 39° |
| 2026-04-30 09:26 | 27.52833 | 128.07394 | 23832 ft | 471 kts | 39° |
| 2026-04-30 09:27 | 27.55309 | 128.09830 | 24084 ft | 473 kts | 39° |
| 2026-04-30 09:27 | 27.57794 | 128.12277 | 24336 ft | 475 kts | 39° |
| 2026-04-30 09:27 | 27.60287 | 128.14735 | 24600 ft | 477 kts | 39° |
| 2026-04-30 09:27 | 27.62787 | 128.17203 | 24852 ft | 478 kts | 39° |
| 2026-04-30 09:28 | 27.65295 | 128.19678 | 25108 ft | 480 kts | 39° |
| 2026-04-30 09:28 | 27.67813 | 128.22162 | 25342 ft | 481 kts | 39° |
| 2026-04-30 09:28 | 27.70339 | 128.24650 | 25598 ft | 483 kts | 39° |
| 2026-04-30 09:28 | 27.72878 | 128.27152 | 25841 ft | 485 kts | 39° |
| 2026-04-30 09:29 | 27.75423 | 128.29667 | 26072 ft | 487 kts | 39° |
| 2026-04-30 09:29 | 27.77979 | 128.32195 | 26333 ft | 489 kts | 39° |
| 2026-04-30 09:29 | 27.80540 | 128.34730 | 26600 ft | 490 kts | 39° |
| 2026-04-30 09:29 | 27.83108 | 128.37273 | 26848 ft | 492 kts | 39° |
| 2026-04-30 09:30 | 27.85686 | 128.39827 | 27104 ft | 494 kts | 39° |
| 2026-04-30 09:30 | 27.88246 | 128.42365 | 27366 ft | 495 kts | 39° |
| 2026-04-30 09:30 | 27.90842 | 128.44941 | 27627 ft | 497 kts | 39° |
| 2026-04-30 09:30 | 27.93445 | 128.47525 | 27894 ft | 499 kts | 39° |
| 2026-04-30 09:31 | 27.96057 | 128.50122 | 28145 ft | 501 kts | 39° |
| 2026-04-30 09:31 | 27.98636 | 128.52775 | 28418 ft | 503 kts | 41° |
| 2026-04-30 09:31 | 28.01186 | 128.55497 | 28683 ft | 505 kts | 42° |
| 2026-04-30 09:31 | 28.03733 | 128.58256 | 28885 ft | 508 kts | 42° |
| 2026-04-30 09:32 | 28.06292 | 128.61036 | 29098 ft | 511 kts | 42° |
| 2026-04-30 09:32 | 28.08868 | 128.63823 | 29360 ft | 513 kts | 42° |
| 2026-04-30 09:32 | 28.11466 | 128.66620 | 29613 ft | 515 kts | 41° |
| 2026-04-30 09:32 | 28.14075 | 128.69420 | 29880 ft | 517 kts | 41° |
| 2026-04-30 09:33 | 28.16694 | 128.72229 | 30140 ft | 519 kts | 41° |
| 2026-04-30 09:33 | 28.19287 | 128.75006 | 30412 ft | 521 kts | 41° |
| 2026-04-30 09:33 | 28.21930 | 128.77838 | 30686 ft | 524 kts | 41° |
| 2026-04-30 09:33 | 28.24584 | 128.80685 | 30972 ft | 525 kts | 41° |
| 2026-04-30 09:34 | 28.27245 | 128.83540 | 31283 ft | 527 kts | 41° |
| 2026-04-30 09:34 | 28.29920 | 128.86414 | 31581 ft | 529 kts | 41° |
| 2026-04-30 09:34 | 28.32595 | 128.89290 | 31825 ft | 531 kts | 41° |
| 2026-04-30 09:34 | 28.35290 | 128.92191 | 32072 ft | 533 kts | 41° |
| 2026-04-30 09:35 | 28.37986 | 128.95097 | 32328 ft | 535 kts | 41° |
| 2026-04-30 09:35 | 28.40694 | 128.98018 | 32578 ft | 537 kts | 41° |
| 2026-04-30 09:35 | 28.43410 | 129.00949 | 32797 ft | 540 kts | 41° |
| 2026-04-30 09:35 | 28.46133 | 129.03891 | 33031 ft | 541 kts | 41° |
| 2026-04-30 09:36 | 28.48829 | 129.06805 | 33241 ft | 544 kts | 41° |
| 2026-04-30 09:36 | 28.51580 | 129.09779 | 33462 ft | 545 kts | 41° |
| 2026-04-30 09:36 | 28.54338 | 129.12761 | 33680 ft | 548 kts | 41° |
| 2026-04-30 09:36 | 28.57093 | 129.15744 | 33892 ft | 549 kts | 41° |
| 2026-04-30 09:37 | 28.59868 | 129.18751 | 34126 ft | 551 kts | 41° |
| 2026-04-30 09:37 | 28.62649 | 129.21770 | 34357 ft | 552 kts | 41° |
| 2026-04-30 09:37 | 28.65438 | 129.24798 | 34688 ft | 552 kts | 41° |
| 2026-04-30 09:37 | 28.68183 | 129.27780 | 35018 ft | 551 kts | 41° |
| 2026-04-30 09:38 | 28.70958 | 129.30801 | 35286 ft | 552 kts | 41° |
| 2026-04-30 09:38 | 28.73728 | 129.33817 | 35591 ft | 551 kts | 41° |
| 2026-04-30 09:38 | 28.76539 | 129.36875 | 35932 ft | 550 kts | 41° |
| 2026-04-30 09:38 | 28.79276 | 129.39854 | 36191 ft | 551 kts | 41° |
| 2026-04-30 09:39 | 28.82077 | 129.42903 | 36446 ft | 552 kts | 41° |
| 2026-04-30 09:39 | 28.84858 | 129.45936 | 36758 ft | 551 kts | 41° |
| 2026-04-30 09:39 | 28.87631 | 129.48966 | 37101 ft | 551 kts | 41° |
| 2026-04-30 09:39 | 28.90396 | 129.51991 | 37461 ft | 549 kts | 41° |
| 2026-04-30 09:40 | 28.93145 | 129.55000 | 37815 ft | 547 kts | 41° |
| 2026-04-30 09:40 | 28.95892 | 129.58009 | 38169 ft | 546 kts | 42° |
| 2026-04-30 09:40 | 28.98625 | 129.61002 | 38480 ft | 544 kts | 42° |
| 2026-04-30 09:40 | 29.01365 | 129.64005 | 38746 ft | 545 kts | 42° |
| 2026-04-30 09:41 | 29.04102 | 129.67006 | 38877 ft | 547 kts | 42° |
| 2026-04-30 09:41 | 29.06856 | 129.70029 | 38889 ft | 547 kts | 42° |
| 2026-04-30 09:41 | 29.12353 | 129.76071 | 38882 ft | 548 kts | 42° |
| 2026-04-30 09:42 | 29.17858 | 129.82132 | 38878 ft | 549 kts | 42° |
| 2026-04-30 09:42 | 29.23368 | 129.88206 | 38880 ft | 550 kts | 42° |
| 2026-04-30 09:43 | 29.28851 | 129.94268 | 38880 ft | 551 kts | 42° |
| 2026-04-30 09:43 | 29.34370 | 130.00375 | 38878 ft | 552 kts | 42° |
| 2026-04-30 09:44 | 29.39891 | 130.06489 | 38878 ft | 551 kts | 42° |
| 2026-04-30 09:44 | 29.45408 | 130.12617 | 38880 ft | 552 kts | 42° |
| 2026-04-30 09:45 | 29.50922 | 130.18742 | 38878 ft | 552 kts | 42° |
| 2026-04-30 09:45 | 29.56455 | 130.24898 | 38872 ft | 553 kts | 42° |
| 2026-04-30 09:46 | 29.61935 | 130.31011 | 38870 ft | 553 kts | 43° |
| 2026-04-30 09:46 | 29.67454 | 130.37178 | 38871 ft | 553 kts | 43° |
| 2026-04-30 09:47 | 29.72971 | 130.43350 | 38868 ft | 553 kts | 43° |
| 2026-04-30 09:47 | 29.78489 | 130.49538 | 38871 ft | 553 kts | 43° |
| 2026-04-30 09:48 | 29.84000 | 130.55720 | 38868 ft | 553 kts | 43° |
| 2026-04-30 09:48 | 29.89508 | 130.61910 | 38859 ft | 552 kts | 42° |
| 2026-04-30 09:49 | 29.94998 | 130.68093 | 38860 ft | 551 kts | 43° |
| 2026-04-30 09:49 | 30.00579 | 130.74169 | 38864 ft | 550 kts | 36° |
| 2026-04-30 09:50 | 30.06768 | 130.79201 | 38864 ft | 549 kts | 30° |
| 2026-04-30 09:50 | 30.13176 | 130.84074 | 38860 ft | 551 kts | 30° |
| 2026-04-30 09:51 | 30.19599 | 130.88917 | 38860 ft | 551 kts | 30° |
| 2026-04-30 09:51 | 30.26016 | 130.93784 | 38860 ft | 551 kts | 30° |
| 2026-04-30 09:52 | 30.32422 | 130.98669 | 38860 ft | 551 kts | 30° |
| 2026-04-30 09:52 | 30.38807 | 131.03551 | 38860 ft | 551 kts | 30° |
| 2026-04-30 09:53 | 30.45195 | 131.08444 | 38860 ft | 551 kts | 30° |
| 2026-04-30 09:53 | 30.51558 | 131.13331 | 38860 ft | 551 kts | 30° |
| 2026-04-30 09:54 | 30.57952 | 131.18251 | 38860 ft | 551 kts | 30° |
| 2026-04-30 09:54 | 30.64340 | 131.23173 | 38860 ft | 551 kts | 30° |
| 2026-04-30 09:55 | 30.70720 | 131.28098 | 38859 ft | 551 kts | 30° |
| 2026-04-30 09:55 | 30.77116 | 131.33044 | 38851 ft | 551 kts | 30° |
| 2026-04-30 09:56 | 30.83509 | 131.37996 | 38851 ft | 552 kts | 30° |
| 2026-04-30 09:56 | 30.89899 | 131.42954 | 38851 ft | 553 kts | 30° |
| 2026-04-30 09:57 | 30.96304 | 131.47932 | 38860 ft | 553 kts | 30° |
| 2026-04-30 09:57 | 31.02679 | 131.52892 | 38860 ft | 554 kts | 30° |
| 2026-04-30 09:58 | 31.09095 | 131.57895 | 38860 ft | 555 kts | 30° |
| 2026-04-30 09:58 | 31.15526 | 131.62915 | 38860 ft | 556 kts | 30° |
| 2026-04-30 09:59 | 31.28392 | 131.72993 | 38860 ft | 557 kts | 30° |
| 2026-04-30 10:00 | 31.38041 | 131.80557 | 38859 ft | 559 kts | 30° |
| 2026-04-30 10:01 | 31.47742 | 131.88184 | 38859 ft | 560 kts | 30° |
| 2026-04-30 10:02 | 31.57451 | 131.95835 | 38860 ft | 561 kts | 30° |
| 2026-04-30 10:02 | 31.63929 | 132.00954 | 38860 ft | 562 kts | 30° |
| 2026-04-30 10:03 | 31.70408 | 132.06080 | 38860 ft | 561 kts | 30° |
| 2026-04-30 10:03 | 31.76874 | 132.11202 | 38860 ft | 561 kts | 30° |
| 2026-04-30 10:04 | 31.83326 | 132.16324 | 38860 ft | 562 kts | 30° |
| 2026-04-30 10:04 | 31.89811 | 132.21481 | 38856 ft | 562 kts | 30° |
| 2026-04-30 10:05 | 31.95199 | 132.25773 | 38860 ft | 562 kts | 30° |
| 2026-04-30 10:05 | 32.01669 | 132.30937 | 38859 ft | 563 kts | 30° |
| 2026-04-30 10:06 | 32.08160 | 132.36127 | 38872 ft | 563 kts | 30° |
| 2026-04-30 10:06 | 32.11232 | 132.39017 | 38874 ft | 568 kts | 41° |
| 2026-04-30 10:06 | 32.13874 | 132.42479 | 38867 ft | 570 kts | 53° |
| 2026-04-30 10:07 | 32.18287 | 132.50264 | 38869 ft | 570 kts | 58° |
| 2026-04-30 10:07 | 32.22437 | 132.58235 | 38868 ft | 571 kts | 59° |
| 2026-04-30 10:08 | 32.26573 | 132.66242 | 38868 ft | 571 kts | 58° |
| 2026-04-30 10:08 | 32.30766 | 132.74291 | 38886 ft | 570 kts | 58° |
| 2026-04-30 10:09 | 32.34910 | 132.82208 | 38888 ft | 570 kts | 58° |
| 2026-04-30 10:09 | 32.39103 | 132.90234 | 38895 ft | 569 kts | 58° |
| 2026-04-30 10:10 | 32.43236 | 132.98163 | 38897 ft | 568 kts | 58° |
| 2026-04-30 10:10 | 32.47543 | 133.05993 | 38899 ft | 567 kts | 53° |
| 2026-04-30 10:11 | 32.52193 | 133.13211 | 38903 ft | 566 kts | 50° |
| 2026-04-30 10:11 | 32.57099 | 133.20505 | 38908 ft | 565 kts | 50° |
| 2026-04-30 10:12 | 32.61991 | 133.27806 | 38908 ft | 565 kts | 50° |
| 2026-04-30 10:12 | 32.66856 | 133.35141 | 38910 ft | 565 kts | 50° |
| 2026-04-30 10:13 | 32.71697 | 133.42483 | 38916 ft | 564 kts | 50° |
| 2026-04-30 10:13 | 32.76526 | 133.49831 | 38915 ft | 564 kts | 50° |
| 2026-04-30 10:14 | 32.81356 | 133.57190 | 38918 ft | 565 kts | 50° |
| 2026-04-30 10:14 | 32.83746 | 133.60836 | 38735 ft | 564 kts | 50° |
| 2026-04-30 10:14 | 32.88546 | 133.68171 | 37849 ft | 560 kts | 51° |
| 2026-04-30 10:15 | 32.90935 | 133.71827 | 37202 ft | 560 kts | 51° |
| 2026-04-30 10:15 | 32.93329 | 133.75492 | 36532 ft | 560 kts | 51° |
| 2026-04-30 10:15 | 32.95725 | 133.79161 | 35843 ft | 561 kts | 51° |
| 2026-04-30 10:15 | 32.98123 | 133.82839 | 35134 ft | 562 kts | 51° |
| 2026-04-30 10:16 | 33.00516 | 133.86512 | 34372 ft | 564 kts | 51° |
| 2026-04-30 10:16 | 33.02957 | 133.90263 | 33548 ft | 566 kts | 51° |
| 2026-04-30 10:16 | 33.05345 | 133.93938 | 32740 ft | 568 kts | 51° |
| 2026-04-30 10:17 | 33.10142 | 134.01332 | 31601 ft | 560 kts | 52° |
| 2026-04-30 10:17 | 33.14894 | 134.08674 | 30430 ft | 551 kts | 52° |
| 2026-04-30 10:17 | 33.17227 | 134.12284 | 29848 ft | 547 kts | 52° |
| 2026-04-30 10:18 | 33.19542 | 134.15875 | 29271 ft | 544 kts | 52° |
| 2026-04-30 10:18 | 33.21843 | 134.19444 | 28695 ft | 540 kts | 52° |
| 2026-04-30 10:18 | 33.24124 | 134.22981 | 28130 ft | 536 kts | 52° |
| 2026-04-30 10:19 | 33.28641 | 134.29995 | 27007 ft | 527 kts | 52° |
| 2026-04-30 10:19 | 33.30862 | 134.33447 | 26452 ft | 522 kts | 51° |
| 2026-04-30 10:19 | 33.33066 | 134.36875 | 25901 ft | 517 kts | 51° |
| 2026-04-30 10:19 | 33.35243 | 134.40267 | 25346 ft | 512 kts | 51° |
| 2026-04-30 10:20 | 33.37403 | 134.43636 | 24808 ft | 507 kts | 51° |
| 2026-04-30 10:20 | 33.41650 | 134.50271 | 23714 ft | 497 kts | 51° |
| 2026-04-30 10:20 | 33.43762 | 134.53577 | 23147 ft | 491 kts | 51° |
| 2026-04-30 10:21 | 33.45827 | 134.56810 | 22604 ft | 486 kts | 51° |
| 2026-04-30 10:21 | 33.47868 | 134.60006 | 22059 ft | 481 kts | 51° |
| 2026-04-30 10:21 | 33.49889 | 134.63173 | 21514 ft | 475 kts | 51° |
| 2026-04-30 10:21 | 33.51884 | 134.66305 | 20978 ft | 470 kts | 51° |
| 2026-04-30 10:22 | 33.53860 | 134.69410 | 20428 ft | 465 kts | 51° |
| 2026-04-30 10:22 | 33.55788 | 134.72444 | 19895 ft | 461 kts | 51° |
| 2026-04-30 10:22 | 33.57737 | 134.75478 | 19326 ft | 455 kts | 49° |
| 2026-04-30 10:22 | 33.59973 | 134.78104 | 18840 ft | 446 kts | 35° |
| 2026-04-30 10:23 | 33.62452 | 134.80294 | 18520 ft | 442 kts | 31° |
| 2026-04-30 10:23 | 33.65027 | 134.82317 | 18203 ft | 441 kts | 28° |
| 2026-04-30 10:23 | 33.67640 | 134.84240 | 17864 ft | 438 kts | 27° |
| 2026-04-30 10:23 | 33.70243 | 134.86108 | 17533 ft | 435 kts | 27° |
| 2026-04-30 10:24 | 33.72847 | 134.87971 | 17203 ft | 433 kts | 27° |
| 2026-04-30 10:24 | 33.75413 | 134.89822 | 16885 ft | 430 kts | 27° |
| 2026-04-30 10:24 | 33.77986 | 134.91695 | 16553 ft | 428 kts | 27° |
| 2026-04-30 10:24 | 33.80514 | 134.93550 | 16226 ft | 425 kts | 28° |
| 2026-04-30 10:25 | 33.83029 | 134.95405 | 15904 ft | 422 kts | 28° |
| 2026-04-30 10:25 | 33.85517 | 134.97251 | 15590 ft | 419 kts | 28° |
| 2026-04-30 10:25 | 33.87992 | 134.99086 | 15273 ft | 417 kts | 28° |
| 2026-04-30 10:25 | 33.90455 | 135.00913 | 14958 ft | 414 kts | 28° |
| 2026-04-30 10:26 | 33.92899 | 135.02728 | 14647 ft | 412 kts | 28° |
| 2026-04-30 10:26 | 33.95335 | 135.04536 | 14330 ft | 409 kts | 28° |
| 2026-04-30 10:26 | 33.97752 | 135.06329 | 14028 ft | 407 kts | 28° |
| 2026-04-30 10:26 | 34.00151 | 135.08113 | 13725 ft | 405 kts | 28° |
| 2026-04-30 10:27 | 34.02544 | 135.09893 | 13421 ft | 402 kts | 28° |
| 2026-04-30 10:27 | 34.04916 | 135.11658 | 13123 ft | 398 kts | 29° |
| 2026-04-30 10:27 | 34.07231 | 135.13382 | 12831 ft | 394 kts | 29° |
| 2026-04-30 10:27 | 34.09559 | 135.15116 | 12532 ft | 392 kts | 29° |
| 2026-04-30 10:28 | 34.11874 | 135.16843 | 12236 ft | 390 kts | 29° |
| 2026-04-30 10:28 | 34.14177 | 135.18556 | 11940 ft | 387 kts | 29° |
| 2026-04-30 10:28 | 34.16464 | 135.20260 | 11649 ft | 386 kts | 29° |
| 2026-04-30 10:28 | 34.18774 | 135.21981 | 11353 ft | 383 kts | 30° |
| 2026-04-30 10:29 | 34.21009 | 135.23645 | 11074 ft | 380 kts | 30° |
| 2026-04-30 10:29 | 34.23277 | 135.25357 | 10742 ft | 379 kts | 32° |
| 2026-04-30 10:29 | 34.25415 | 135.27103 | 10463 ft | 370 kts | 34° |
| 2026-04-30 10:29 | 34.27477 | 135.28823 | 10216 ft | 348 kts | 35° |
| 2026-04-30 10:30 | 34.29436 | 135.30444 | 9860 ft | 327 kts | 36° |
| 2026-04-30 10:30 | 34.31267 | 135.31957 | 9414 ft | 311 kts | 36° |
| 2026-04-30 10:30 | 34.33017 | 135.33401 | 9121 ft | 300 kts | 37° |
| 2026-04-30 10:30 | 34.34740 | 135.34814 | 8866 ft | 298 kts | 38° |
| 2026-04-30 10:31 | 34.36452 | 135.36217 | 8587 ft | 295 kts | 38° |
| 2026-04-30 10:31 | 34.37901 | 135.37404 | 8348 ft | 293 kts | 38° |
| 2026-04-30 10:31 | 34.39584 | 135.38789 | 8081 ft | 292 kts | 38° |
| 2026-04-30 10:31 | 34.41253 | 135.40163 | 7976 ft | 290 kts | 39° |
| 2026-04-30 10:32 | 34.42920 | 135.41543 | 7972 ft | 290 kts | 39° |
| 2026-04-30 10:32 | 34.44386 | 135.43168 | 7970 ft | 283 kts | 58° |
| 2026-04-30 10:32 | 34.45410 | 135.45166 | 7969 ft | 278 kts | 66° |
| 2026-04-30 10:32 | 34.46339 | 135.47230 | 7969 ft | 279 kts | 66° |
| 2026-04-30 10:33 | 34.47263 | 135.49286 | 7969 ft | 278 kts | 65° |
| 2026-04-30 10:33 | 34.48195 | 135.51334 | 7978 ft | 278 kts | 65° |
| 2026-04-30 10:33 | 34.48984 | 135.53447 | 7769 ft | 271 kts | 76° |
| 2026-04-30 10:33 | 34.49466 | 135.55648 | 7307 ft | 268 kts | 81° |
| 2026-04-30 10:34 | 34.49878 | 135.57844 | 6726 ft | 263 kts | 82° |
| 2026-04-30 10:34 | 34.50271 | 135.59967 | 6177 ft | 252 kts | 82° |
| 2026-04-30 10:34 | 34.50652 | 135.61979 | 5822 ft | 236 kts | 82° |
| 2026-04-30 10:34 | 34.51019 | 135.63841 | 5507 ft | 220 kts | 82° |
| 2026-04-30 10:35 | 34.51371 | 135.65593 | 5172 ft | 209 kts | 82° |
| 2026-04-30 10:35 | 34.51873 | 135.67230 | 4702 ft | 210 kts | 63° |
| 2026-04-30 10:35 | 34.53004 | 135.68390 | 4213 ft | 220 kts | 28° |
| 2026-04-30 10:35 | 34.54530 | 135.68601 | 4007 ft | 230 kts | 355° |
| 2026-04-30 10:36 | 34.56079 | 135.68047 | 3980 ft | 233 kts | 343° |
| 2026-04-30 10:36 | 34.57584 | 135.67327 | 3972 ft | 229 kts | 342° |
| 2026-04-30 10:36 | 34.59003 | 135.66608 | 3982 ft | 214 kts | 340° |
| 2026-04-30 10:36 | 34.60250 | 135.65638 | 3904 ft | 212 kts | 322° |
| 2026-04-30 10:37 | 34.61318 | 135.64401 | 3597 ft | 213 kts | 315° |
| 2026-04-30 10:37 | 34.62339 | 135.63167 | 3472 ft | 199 kts | 317° |
| 2026-04-30 10:37 | 34.62979 | 135.62392 | 3483 ft | 193 kts | 317° |
| 2026-04-30 10:37 | 34.64259 | 135.60852 | 3475 ft | 193 kts | 317° |
| 2026-04-30 10:38 | 34.64896 | 135.60095 | 3424 ft | 194 kts | 318° |
| 2026-04-30 10:38 | 34.65861 | 135.58956 | 3199 ft | 193 kts | 317° |
| 2026-04-30 10:38 | 34.66816 | 135.57805 | 2927 ft | 193 kts | 317° |
| 2026-04-30 10:38 | 34.67762 | 135.56651 | 2666 ft | 192 kts | 317° |
| 2026-04-30 10:39 | 34.68704 | 135.55511 | 2399 ft | 190 kts | 318° |
| 2026-04-30 10:39 | 34.69639 | 135.54380 | 2139 ft | 188 kts | 317° |
| 2026-04-30 10:39 | 34.70556 | 135.53268 | 1894 ft | 184 kts | 318° |
| 2026-04-30 10:39 | 34.71431 | 135.52206 | 1648 ft | 176 kts | 319° |
| 2026-04-30 10:40 | 34.72296 | 135.51158 | 1416 ft | 169 kts | 319° |
| 2026-04-30 10:40 | 34.73091 | 135.50194 | 1196 ft | 158 kts | 319° |
| 2026-04-30 10:40 | 34.73845 | 135.49279 | 996 ft | 148 kts | 320° |
| 2026-04-30 10:40 | 34.74551 | 135.48425 | 804 ft | 140 kts | 320° |
| 2026-04-30 10:41 | 34.75239 | 135.47595 | 642 ft | 139 kts | 320° |
| 2026-04-30 10:41 | 34.75924 | 135.46757 | 427 ft | 140 kts | 319° |
| 2026-04-30 10:41 | 34.76608 | 135.45919 | 263 ft | 139 kts | 320° |
| 2026-04-30 10:41 | 34.77294 | 135.45090 | 88 ft | 138 kts | 321° |
| 2026-04-30 10:42 | 34.77925 | 135.44338 | 56 ft | 103 kts | 315° |
| 2026-04-30 10:42 | 34.78304 | 135.43871 | 56 ft | 58 kts | 315° |
| 2026-04-30 10:42 | 34.78526 | 135.43611 | 53 ft | 29 kts | 324° |
| 2026-04-30 10:42 | 34.78693 | 135.43507 | 55 ft | 25 kts | 335° |
| 2026-04-30 10:43 | 34.78817 | 135.43440 | 55 ft | 16 kts | 340° |
| 2026-04-30 10:43 | 34.78918 | 135.43424 | 48 ft | 14 kts | 5° |
| 2026-04-30 10:43 | 34.79005 | 135.43453 | 57 ft | 11 kts | 24° |
| 2026-04-30 10:43 | 34.79061 | 135.43525 | 49 ft | 13 kts | 68° |
| 2026-04-30 10:44 | 34.79043 | 135.43632 | 50 ft | 14 kts | 130° |
| 2026-04-30 10:44 | 34.78972 | 135.43722 | 51 ft | 15 kts | 135° |
| 2026-04-30 10:44 | 34.78893 | 135.43818 | 49 ft | 16 kts | 135° |
| 2026-04-30 10:44 | 34.78825 | 135.43899 | 51 ft | 13 kts | 135° |
| 2026-04-30 10:45 | 34.78759 | 135.43979 | 53 ft | 14 kts | 135° |
| 2026-04-30 10:45 | 34.78727 | 135.44038 | 54 ft | 7 kts | 100° |
| 2026-04-30 10:45 | 34.78752 | 135.44076 | 54 ft | 5 kts | 19° |
| 2026-04-30 10:45 | 34.78788 | 135.44064 | 52 ft | 6 kts | 330° |
| 2026-04-30 10:46 | 34.78846 | 135.44002 | 52 ft | 14 kts | 315° |
| 2026-04-30 10:46 | 34.78912 | 135.43922 | 48 ft | 9 kts | 315° |
| 2026-04-30 10:46 | 34.78951 | 135.43887 | 55 ft | 3 kts | 352° |
| 2026-04-30 10:46 | 34.78972 | 135.43899 | 48 ft | 4 kts | 33° |
| 2026-04-30 10:47 | 34.78995 | 135.43929 | 55 ft | 5 kts | 54° |
| 2026-04-30 10:47 | 34.79006 | 135.43947 | 55 ft | 0 kts | 53° |